sensor_id;sensor_type;location;lat;lon;timestamp;P1;durP1;ratioP1;P2;durP2;ratioP2
77158;SDS011;66129;45.890;13.714;2023-03-30T00:02:19;11.35;;;6.30;;
77158;SDS011;66129;45.890;13.714;2023-03-30T00:04:51;11.90;;;6.35;;
77158;SDS011;66129;45.890;13.714;2023-03-30T00:07:17;10.15;;;6.00;;
77158;SDS011;66129;45.890;13.714;2023-03-30T00:09:43;11.40;;;6.53;;
77158;SDS011;66129;45.890;13.714;2023-03-30T00:12:11;9.30;;;5.88;;
77158;SDS011;66129;45.890;13.714;2023-03-30T00:14:37;10.25;;;6.35;;
77158;SDS011;66129;45.890;13.714;2023-03-30T00:17:05;11.73;;;6.40;;
77158;SDS011;66129;45.890;13.714;2023-03-30T00:19:32;15.45;;;6.30;;
77158;SDS011;66129;45.890;13.714;2023-03-30T00:21:57;12.20;;;6.97;;
77158;SDS011;66129;45.890;13.714;2023-03-30T00:24:23;9.82;;;6.60;;
77158;SDS011;66129;45.890;13.714;2023-03-30T00:26:49;12.18;;;6.75;;
77158;SDS011;66129;45.890;13.714;2023-03-30T00:29:14;14.75;;;6.57;;
77158;SDS011;66129;45.890;13.714;2023-03-30T00:31:40;12.57;;;5.72;;
77158;SDS011;66129;45.890;13.714;2023-03-30T00:34:06;11.57;;;6.55;;
77158;SDS011;66129;45.890;13.714;2023-03-30T00:36:31;11.63;;;6.47;;
77158;SDS011;66129;45.890;13.714;2023-03-30T00:39:01;11.98;;;6.32;;
77158;SDS011;66129;45.890;13.714;2023-03-30T00:41:31;10.45;;;6.20;;
77158;SDS011;66129;45.890;13.714;2023-03-30T00:44:07;9.27;;;6.38;;
77158;SDS011;66129;45.890;13.714;2023-03-30T00:47:01;12.82;;;7.05;;
77158;SDS011;66129;45.890;13.714;2023-03-30T00:49:27;10.43;;;5.68;;
77158;SDS011;66129;45.890;13.714;2023-03-30T00:51:53;11.98;;;5.90;;
77158;SDS011;66129;45.890;13.714;2023-03-30T00:54:19;10.05;;;6.35;;
77158;SDS011;66129;45.890;13.714;2023-03-30T00:56:45;12.40;;;7.25;;
77158;SDS011;66129;45.890;13.714;2023-03-30T00:59:11;10.05;;;6.63;;
77158;SDS011;66129;45.890;13.714;2023-03-30T01:01:38;7.90;;;5.30;;
77158;SDS011;66129;45.890;13.714;2023-03-30T01:04:04;9.85;;;6.07;;
77158;SDS011;66129;45.890;13.714;2023-03-30T01:06:33;12.70;;;6.43;;
77158;SDS011;66129;45.890;13.714;2023-03-30T01:09:00;9.80;;;5.78;;
77158;SDS011;66129;45.890;13.714;2023-03-30T01:11:26;11.93;;;7.15;;
77158;SDS011;66129;45.890;13.714;2023-03-30T01:13:59;10.07;;;6.18;;
77158;SDS011;66129;45.890;13.714;2023-03-30T01:50:15;9.48;;;5.10;;
77158;SDS011;66129;45.890;13.714;2023-03-30T01:55:51;9.05;;;4.82;;
77158;SDS011;66129;45.890;13.714;2023-03-30T02:01:00;10.23;;;5.03;;
77158;SDS011;66129;45.890;13.714;2023-03-30T02:03:29;10.98;;;5.38;;
77158;SDS011;66129;45.890;13.714;2023-03-30T02:06:01;12.43;;;5.60;;
77158;SDS011;66129;45.890;13.714;2023-03-30T02:08:33;9.73;;;5.45;;
77158;SDS011;66129;45.890;13.714;2023-03-30T02:11:01;11.82;;;6.45;;
77158;SDS011;66129;45.890;13.714;2023-03-30T02:13:26;10.65;;;6.35;;
77158;SDS011;66129;45.890;13.714;2023-03-30T02:16:05;8.93;;;5.55;;
77158;SDS011;66129;45.890;13.714;2023-03-30T02:18:38;8.45;;;5.55;;
77158;SDS011;66129;45.890;13.714;2023-03-30T02:21:04;13.90;;;6.45;;
77158;SDS011;66129;45.890;13.714;2023-03-30T02:23:31;10.35;;;5.68;;
77158;SDS011;66129;45.890;13.714;2023-03-30T02:26:00;11.20;;;6.40;;
77158;SDS011;66129;45.890;13.714;2023-03-30T02:28:26;9.60;;;6.55;;
77158;SDS011;66129;45.890;13.714;2023-03-30T02:30:52;10.20;;;6.40;;
77158;SDS011;66129;45.890;13.714;2023-03-30T02:33:25;10.00;;;6.30;;
77158;SDS011;66129;45.890;13.714;2023-03-30T02:36:09;12.48;;;6.45;;
77158;SDS011;66129;45.890;13.714;2023-03-30T02:38:50;13.85;;;6.43;;
77158;SDS011;66129;45.890;13.714;2023-03-30T02:44:14;9.63;;;5.50;;
77158;SDS011;66129;45.890;13.714;2023-03-30T02:46:47;12.45;;;6.38;;
77158;SDS011;66129;45.890;13.714;2023-03-30T02:52:22;10.57;;;5.32;;
77158;SDS011;66129;45.890;13.714;2023-03-30T02:55:06;15.15;;;6.15;;
77158;SDS011;66129;45.890;13.714;2023-03-30T03:03:34;11.40;;;6.40;;
77158;SDS011;66129;45.890;13.714;2023-03-30T03:06:02;9.77;;;6.60;;
77158;SDS011;66129;45.890;13.714;2023-03-30T03:08:34;12.73;;;6.75;;
77158;SDS011;66129;45.890;13.714;2023-03-30T03:11:03;11.50;;;7.43;;
77158;SDS011;66129;45.890;13.714;2023-03-30T03:13:31;10.80;;;7.28;;
77158;SDS011;66129;45.890;13.714;2023-03-30T03:15:57;12.40;;;7.53;;
77158;SDS011;66129;45.890;13.714;2023-03-30T03:18:23;14.55;;;8.38;;
77158;SDS011;66129;45.890;13.714;2023-03-30T03:20:49;13.13;;;8.10;;
77158;SDS011;66129;45.890;13.714;2023-03-30T03:23:15;12.90;;;8.10;;
77158;SDS011;66129;45.890;13.714;2023-03-30T03:25:41;14.02;;;7.38;;
77158;SDS011;66129;45.890;13.714;2023-03-30T03:28:06;11.73;;;7.13;;
77158;SDS011;66129;45.890;13.714;2023-03-30T03:30:32;12.00;;;6.75;;
77158;SDS011;66129;45.890;13.714;2023-03-30T03:32:58;12.27;;;7.53;;
77158;SDS011;66129;45.890;13.714;2023-03-30T03:35:23;11.93;;;6.65;;
77158;SDS011;66129;45.890;13.714;2023-03-30T03:37:49;11.30;;;6.88;;
77158;SDS011;66129;45.890;13.714;2023-03-30T03:40:14;9.30;;;6.22;;
77158;SDS011;66129;45.890;13.714;2023-03-30T03:42:40;9.98;;;6.35;;
77158;SDS011;66129;45.890;13.714;2023-03-30T03:45:06;19.55;;;6.43;;
77158;SDS011;66129;45.890;13.714;2023-03-30T03:47:32;9.65;;;6.10;;
77158;SDS011;66129;45.890;13.714;2023-03-30T03:49:58;11.70;;;6.68;;
77158;SDS011;66129;45.890;13.714;2023-03-30T03:52:27;9.90;;;5.70;;
77158;SDS011;66129;45.890;13.714;2023-03-30T03:54:53;10.90;;;6.00;;
77158;SDS011;66129;45.890;13.714;2023-03-30T03:57:19;12.70;;;6.82;;
77158;SDS011;66129;45.890;13.714;2023-03-30T03:59:48;11.07;;;6.72;;
77158;SDS011;66129;45.890;13.714;2023-03-30T04:02:14;15.68;;;7.47;;
77158;SDS011;66129;45.890;13.714;2023-03-30T04:04:39;10.20;;;6.70;;
77158;SDS011;66129;45.890;13.714;2023-03-30T04:07:05;9.48;;;6.35;;
77158;SDS011;66129;45.890;13.714;2023-03-30T04:09:31;14.75;;;7.40;;
77158;SDS011;66129;45.890;13.714;2023-03-30T04:11:56;12.13;;;6.97;;
77158;SDS011;66129;45.890;13.714;2023-03-30T04:14:21;10.25;;;6.70;;
77158;SDS011;66129;45.890;13.714;2023-03-30T04:16:47;11.55;;;6.35;;
77158;SDS011;66129;45.890;13.714;2023-03-30T04:19:13;10.85;;;6.50;;
77158;SDS011;66129;45.890;13.714;2023-03-30T04:21:40;9.70;;;6.47;;
77158;SDS011;66129;45.890;13.714;2023-03-30T04:24:06;10.75;;;6.32;;
77158;SDS011;66129;45.890;13.714;2023-03-30T04:26:34;9.23;;;5.45;;
77158;SDS011;66129;45.890;13.714;2023-03-30T04:28:59;7.93;;;4.95;;
77158;SDS011;66129;45.890;13.714;2023-03-30T04:31:25;9.45;;;6.63;;
77158;SDS011;66129;45.890;13.714;2023-03-30T04:33:58;7.10;;;4.50;;
77158;SDS011;66129;45.890;13.714;2023-03-30T04:36:27;10.77;;;6.45;;
77158;SDS011;66129;45.890;13.714;2023-03-30T04:38:53;10.93;;;6.88;;
77158;SDS011;66129;45.890;13.714;2023-03-30T04:41:25;15.13;;;8.13;;
77158;SDS011;66129;45.890;13.714;2023-03-30T04:44:02;13.18;;;7.88;;
77158;SDS011;66129;45.890;13.714;2023-03-30T04:46:29;15.43;;;7.28;;
77158;SDS011;66129;45.890;13.714;2023-03-30T04:48:54;13.75;;;8.65;;
77158;SDS011;66129;45.890;13.714;2023-03-30T04:51:20;13.98;;;8.70;;
77158;SDS011;66129;45.890;13.714;2023-03-30T04:53:46;13.00;;;8.10;;
77158;SDS011;66129;45.890;13.714;2023-03-30T04:56:11;11.52;;;6.65;;
77158;SDS011;66129;45.890;13.714;2023-03-30T04:58:37;13.35;;;7.05;;
77158;SDS011;66129;45.890;13.714;2023-03-30T05:01:02;11.48;;;6.78;;
77158;SDS011;66129;45.890;13.714;2023-03-30T05:03:28;11.23;;;6.10;;
77158;SDS011;66129;45.890;13.714;2023-03-30T05:05:54;11.30;;;6.40;;
77158;SDS011;66129;45.890;13.714;2023-03-30T05:08:20;24.27;;;10.95;;
77158;SDS011;66129;45.890;13.714;2023-03-30T05:10:45;16.65;;;9.55;;
77158;SDS011;66129;45.890;13.714;2023-03-30T05:13:11;12.32;;;5.70;;
77158;SDS011;66129;45.890;13.714;2023-03-30T05:15:36;24.55;;;11.57;;
77158;SDS011;66129;45.890;13.714;2023-03-30T05:18:02;10.05;;;5.65;;
77158;SDS011;66129;45.890;13.714;2023-03-30T05:20:28;11.80;;;7.05;;
77158;SDS011;66129;45.890;13.714;2023-03-30T05:22:53;17.88;;;8.15;;
77158;SDS011;66129;45.890;13.714;2023-03-30T05:25:19;19.10;;;9.90;;
77158;SDS011;66129;45.890;13.714;2023-03-30T05:27:45;21.33;;;11.38;;
77158;SDS011;66129;45.890;13.714;2023-03-30T05:30:10;29.38;;;15.13;;
77158;SDS011;66129;45.890;13.714;2023-03-30T05:32:36;39.25;;;17.38;;
77158;SDS011;66129;45.890;13.714;2023-03-30T05:35:02;23.15;;;10.10;;
77158;SDS011;66129;45.890;13.714;2023-03-30T05:37:28;32.10;;;15.00;;
77158;SDS011;66129;45.890;13.714;2023-03-30T05:39:53;16.80;;;9.10;;
77158;SDS011;66129;45.890;13.714;2023-03-30T05:42:19;18.05;;;8.43;;
77158;SDS011;66129;45.890;13.714;2023-03-30T05:44:45;100.53;;;46.95;;
77158;SDS011;66129;45.890;13.714;2023-03-30T05:47:11;93.75;;;45.20;;
77158;SDS011;66129;45.890;13.714;2023-03-30T05:49:36;30.63;;;16.63;;
77158;SDS011;66129;45.890;13.714;2023-03-30T05:52:02;16.17;;;8.80;;
77158;SDS011;66129;45.890;13.714;2023-03-30T05:54:28;14.10;;;9.10;;
77158;SDS011;66129;45.890;13.714;2023-03-30T05:56:56;11.00;;;6.72;;
77158;SDS011;66129;45.890;13.714;2023-03-30T05:59:22;15.93;;;10.13;;
77158;SDS011;66129;45.890;13.714;2023-03-30T06:01:51;12.07;;;9.00;;
77158;SDS011;66129;45.890;13.714;2023-03-30T06:04:17;24.70;;;12.93;;
77158;SDS011;66129;45.890;13.714;2023-03-30T06:06:42;17.15;;;8.35;;
77158;SDS011;66129;45.890;13.714;2023-03-30T06:09:08;12.15;;;7.53;;
77158;SDS011;66129;45.890;13.714;2023-03-30T06:11:35;14.23;;;6.60;;
77158;SDS011;66129;45.890;13.714;2023-03-30T06:14:00;11.45;;;7.25;;
77158;SDS011;66129;45.890;13.714;2023-03-30T06:16:26;9.68;;;5.53;;
77158;SDS011;66129;45.890;13.714;2023-03-30T06:18:53;11.48;;;5.47;;
77158;SDS011;66129;45.890;13.714;2023-03-30T06:21:18;8.65;;;5.03;;
77158;SDS011;66129;45.890;13.714;2023-03-30T06:23:44;7.80;;;4.45;;
77158;SDS011;66129;45.890;13.714;2023-03-30T06:26:10;6.35;;;4.05;;
77158;SDS011;66129;45.890;13.714;2023-03-30T06:28:36;10.07;;;3.97;;
77158;SDS011;66129;45.890;13.714;2023-03-30T06:31:11;9.00;;;4.13;;
77158;SDS011;66129;45.890;13.714;2023-03-30T06:33:37;10.80;;;3.63;;
77158;SDS011;66129;45.890;13.714;2023-03-30T06:36:02;9.18;;;4.53;;
77158;SDS011;66129;45.890;13.714;2023-03-30T06:38:28;10.55;;;5.63;;
77158;SDS011;66129;45.890;13.714;2023-03-30T06:40:54;8.93;;;4.28;;
77158;SDS011;66129;45.890;13.714;2023-03-30T06:43:21;8.32;;;5.10;;
77158;SDS011;66129;45.890;13.714;2023-03-30T06:45:52;11.00;;;4.65;;
77158;SDS011;66129;45.890;13.714;2023-03-30T06:48:20;37.25;;;9.15;;
77158;SDS011;66129;45.890;13.714;2023-03-30T06:50:48;13.20;;;5.97;;
77158;SDS011;66129;45.890;13.714;2023-03-30T06:53:14;17.60;;;6.45;;
77158;SDS011;66129;45.890;13.714;2023-03-30T06:55:41;12.05;;;4.88;;
77158;SDS011;66129;45.890;13.714;2023-03-30T06:58:06;9.73;;;5.20;;
77158;SDS011;66129;45.890;13.714;2023-03-30T07:00:32;10.27;;;7.50;;
77158;SDS011;66129;45.890;13.714;2023-03-30T07:02:58;11.07;;;7.25;;
77158;SDS011;66129;45.890;13.714;2023-03-30T07:05:24;10.85;;;5.85;;
77158;SDS011;66129;45.890;13.714;2023-03-30T07:07:52;7.30;;;5.70;;
77158;SDS011;66129;45.890;13.714;2023-03-30T07:10:19;10.45;;;6.25;;
77158;SDS011;66129;45.890;13.714;2023-03-30T07:12:45;11.05;;;7.03;;
77158;SDS011;66129;45.890;13.714;2023-03-30T07:15:11;9.80;;;5.00;;
77158;SDS011;66129;45.890;13.714;2023-03-30T07:17:37;9.40;;;5.75;;
77158;SDS011;66129;45.890;13.714;2023-03-30T07:20:03;12.82;;;9.07;;
77158;SDS011;66129;45.890;13.714;2023-03-30T07:22:30;11.20;;;6.03;;
77158;SDS011;66129;45.890;13.714;2023-03-30T07:24:56;10.93;;;5.10;;
77158;SDS011;66129;45.890;13.714;2023-03-30T07:27:21;9.80;;;4.65;;
77158;SDS011;66129;45.890;13.714;2023-03-30T07:29:50;13.63;;;4.93;;
77158;SDS011;66129;45.890;13.714;2023-03-30T07:32:16;10.75;;;4.68;;
77158;SDS011;66129;45.890;13.714;2023-03-30T07:34:42;9.30;;;5.18;;
77158;SDS011;66129;45.890;13.714;2023-03-30T07:37:08;10.77;;;4.88;;
77158;SDS011;66129;45.890;13.714;2023-03-30T07:39:34;7.60;;;4.65;;
77158;SDS011;66129;45.890;13.714;2023-03-30T07:42:00;10.05;;;5.05;;
77158;SDS011;66129;45.890;13.714;2023-03-30T07:44:26;12.68;;;5.13;;
77158;SDS011;66129;45.890;13.714;2023-03-30T07:46:53;10.02;;;5.25;;
77158;SDS011;66129;45.890;13.714;2023-03-30T07:49:19;101.15;;;46.33;;
77158;SDS011;66129;45.890;13.714;2023-03-30T07:51:45;52.90;;;26.60;;
77158;SDS011;66129;45.890;13.714;2023-03-30T07:54:11;117.40;;;53.20;;
77158;SDS011;66129;45.890;13.714;2023-03-30T07:56:37;106.28;;;53.60;;
77158;SDS011;66129;45.890;13.714;2023-03-30T07:59:04;47.10;;;21.27;;
77158;SDS011;66129;45.890;13.714;2023-03-30T08:01:31;10.68;;;6.47;;
77158;SDS011;66129;45.890;13.714;2023-03-30T08:03:58;18.30;;;11.90;;
77158;SDS011;66129;45.890;13.714;2023-03-30T08:06:24;27.40;;;17.88;;
77158;SDS011;66129;45.890;13.714;2023-03-30T08:08:51;16.70;;;10.82;;
77158;SDS011;66129;45.890;13.714;2023-03-30T08:11:17;9.10;;;5.82;;
77158;SDS011;66129;45.890;13.714;2023-03-30T08:13:43;11.63;;;6.55;;
77158;SDS011;66129;45.890;13.714;2023-03-30T08:16:09;14.80;;;7.78;;
77158;SDS011;66129;45.890;13.714;2023-03-30T08:18:35;15.40;;;8.15;;
77158;SDS011;66129;45.890;13.714;2023-03-30T08:21:02;15.90;;;7.47;;
77158;SDS011;66129;45.890;13.714;2023-03-30T08:23:28;11.60;;;7.47;;
77158;SDS011;66129;45.890;13.714;2023-03-30T08:25:57;10.98;;;5.47;;
77158;SDS011;66129;45.890;13.714;2023-03-30T08:28:25;11.88;;;6.35;;
77158;SDS011;66129;45.890;13.714;2023-03-30T08:30:51;15.18;;;6.18;;
77158;SDS011;66129;45.890;13.714;2023-03-30T08:33:17;10.43;;;6.57;;
77158;SDS011;66129;45.890;13.714;2023-03-30T08:35:46;12.82;;;7.10;;
77158;SDS011;66129;45.890;13.714;2023-03-30T08:38:12;10.65;;;5.80;;
77158;SDS011;66129;45.890;13.714;2023-03-30T08:40:46;11.18;;;5.82;;
77158;SDS011;66129;45.890;13.714;2023-03-30T08:45:53;9.45;;;5.70;;
77158;SDS011;66129;45.890;13.714;2023-03-30T08:48:23;9.45;;;5.20;;
77158;SDS011;66129;45.890;13.714;2023-03-30T08:53:25;7.47;;;4.75;;
77158;SDS011;66129;45.890;13.714;2023-03-30T09:09:18;9.60;;;4.70;;
77158;SDS011;66129;45.890;13.714;2023-03-30T09:11:58;9.73;;;5.15;;
77158;SDS011;66129;45.890;13.714;2023-03-30T09:14:34;13.48;;;7.25;;
77158;SDS011;66129;45.890;13.714;2023-03-30T09:17:09;11.00;;;6.10;;
77158;SDS011;66129;45.890;13.714;2023-03-30T09:19:59;12.40;;;6.65;;
77158;SDS011;66129;45.890;13.714;2023-03-30T09:22:34;12.20;;;5.75;;
77158;SDS011;66129;45.890;13.714;2023-03-30T09:28:16;9.60;;;5.53;;
77158;SDS011;66129;45.890;13.714;2023-03-30T09:31:29;8.98;;;5.22;;
77158;SDS011;66129;45.890;13.714;2023-03-30T09:33:45;10.98;;;6.07;;
77158;SDS011;66129;45.890;13.714;2023-03-30T09:36:13;10.65;;;5.47;;
77158;SDS011;66129;45.890;13.714;2023-03-30T09:39:07;9.50;;;5.35;;
77158;SDS011;66129;45.890;13.714;2023-03-30T09:47:26;9.27;;;5.45;;
77158;SDS011;66129;45.890;13.714;2023-03-30T09:49:59;8.77;;;4.63;;
77158;SDS011;66129;45.890;13.714;2023-03-30T09:52:28;5.95;;;4.20;;
77158;SDS011;66129;45.890;13.714;2023-03-30T09:54:56;8.27;;;4.35;;
77158;SDS011;66129;45.890;13.714;2023-03-30T09:57:30;9.30;;;5.45;;
77158;SDS011;66129;45.890;13.714;2023-03-30T09:59:57;9.65;;;4.68;;
77158;SDS011;66129;45.890;13.714;2023-03-30T10:02:25;10.80;;;5.63;;
77158;SDS011;66129;45.890;13.714;2023-03-30T10:10:11;8.18;;;4.70;;
77158;SDS011;66129;45.890;13.714;2023-03-30T10:12:37;12.80;;;4.88;;
77158;SDS011;66129;45.890;13.714;2023-03-30T10:15:03;16.88;;;8.85;;
77158;SDS011;66129;45.890;13.714;2023-03-30T10:17:30;10.80;;;5.97;;
77158;SDS011;66129;45.890;13.714;2023-03-30T10:20:16;8.38;;;5.10;;
77158;SDS011;66129;45.890;13.714;2023-03-30T10:23:04;9.88;;;5.28;;
77158;SDS011;66129;45.890;13.714;2023-03-30T10:25:35;11.65;;;6.18;;
77158;SDS011;66129;45.890;13.714;2023-03-30T10:28:03;9.85;;;5.72;;
77158;SDS011;66129;45.890;13.714;2023-03-30T10:30:30;9.55;;;4.85;;
77158;SDS011;66129;45.890;13.714;2023-03-30T10:32:58;9.02;;;4.70;;
77158;SDS011;66129;45.890;13.714;2023-03-30T10:35:29;6.20;;;3.88;;
77158;SDS011;66129;45.890;13.714;2023-03-30T10:37:58;14.10;;;6.00;;
77158;SDS011;66129;45.890;13.714;2023-03-30T10:40:31;8.93;;;4.40;;
77158;SDS011;66129;45.890;13.714;2023-03-30T10:42:57;9.15;;;5.13;;
77158;SDS011;66129;45.890;13.714;2023-03-30T10:45:31;16.45;;;6.97;;
77158;SDS011;66129;45.890;13.714;2023-03-30T10:53:32;10.00;;;6.15;;
77158;SDS011;66129;45.890;13.714;2023-03-30T10:56:15;30.75;;;14.25;;
77158;SDS011;66129;45.890;13.714;2023-03-30T11:04:30;12.68;;;6.07;;
77158;SDS011;66129;45.890;13.714;2023-03-30T11:07:22;8.13;;;4.97;;
77158;SDS011;66129;45.890;13.714;2023-03-30T11:09:57;12.75;;;6.07;;
77158;SDS011;66129;45.890;13.714;2023-03-30T11:12:38;12.98;;;6.68;;
77158;SDS011;66129;45.890;13.714;2023-03-30T11:15:08;10.43;;;5.80;;
77158;SDS011;66129;45.890;13.714;2023-03-30T11:17:42;11.05;;;5.88;;
77158;SDS011;66129;45.890;13.714;2023-03-30T11:20:23;11.30;;;6.78;;
77158;SDS011;66129;45.890;13.714;2023-03-30T11:23:00;9.80;;;6.47;;
77158;SDS011;66129;45.890;13.714;2023-03-30T11:25:33;12.52;;;6.97;;
77158;SDS011;66129;45.890;13.714;2023-03-30T11:28:12;18.38;;;8.63;;
77158;SDS011;66129;45.890;13.714;2023-03-30T11:30:45;10.38;;;6.65;;
77158;SDS011;66129;45.890;13.714;2023-03-30T11:35:57;12.38;;;5.40;;
77158;SDS011;66129;45.890;13.714;2023-03-30T11:38:38;10.82;;;5.55;;
77158;SDS011;66129;45.890;13.714;2023-03-30T11:41:19;8.23;;;4.28;;
77158;SDS011;66129;45.890;13.714;2023-03-30T11:43:52;12.82;;;5.35;;
77158;SDS011;66129;45.890;13.714;2023-03-30T11:46:26;6.55;;;3.60;;
77158;SDS011;66129;45.890;13.714;2023-03-30T11:55:05;8.85;;;3.90;;
77158;SDS011;66129;45.890;13.714;2023-03-30T12:00:33;9.82;;;4.13;;
77158;SDS011;66129;45.890;13.714;2023-03-30T12:03:38;8.02;;;3.55;;
77158;SDS011;66129;45.890;13.714;2023-03-30T12:06:31;10.15;;;3.63;;
77158;SDS011;66129;45.890;13.714;2023-03-30T12:12:16;8.07;;;3.33;;
77158;SDS011;66129;45.890;13.714;2023-03-30T12:14:49;5.75;;;3.42;;
77158;SDS011;66129;45.890;13.714;2023-03-30T12:17:41;8.73;;;4.18;;
77158;SDS011;66129;45.890;13.714;2023-03-30T12:22:42;8.60;;;4.22;;
77158;SDS011;66129;45.890;13.714;2023-03-30T12:27:57;10.63;;;4.00;;
77158;SDS011;66129;45.890;13.714;2023-03-30T12:30:27;10.05;;;4.78;;
77158;SDS011;66129;45.890;13.714;2023-03-30T12:33:17;9.85;;;4.38;;
77158;SDS011;66129;45.890;13.714;2023-03-30T12:38:23;10.30;;;4.25;;
77158;SDS011;66129;45.890;13.714;2023-03-30T12:41:00;9.52;;;4.55;;
77158;SDS011;66129;45.890;13.714;2023-03-30T12:52:17;12.18;;;6.43;;
77158;SDS011;66129;45.890;13.714;2023-03-30T13:05:40;8.73;;;5.03;;
77158;SDS011;66129;45.890;13.714;2023-03-30T13:08:09;9.75;;;4.38;;
77158;SDS011;66129;45.890;13.714;2023-03-30T13:10:49;15.15;;;5.85;;
77158;SDS011;66129;45.890;13.714;2023-03-30T13:13:16;10.93;;;5.10;;
77158;SDS011;66129;45.890;13.714;2023-03-30T13:15:48;12.05;;;7.00;;
77158;SDS011;66129;45.890;13.714;2023-03-30T13:25:51;10.57;;;5.55;;
77158;SDS011;66129;45.890;13.714;2023-03-30T13:31:15;10.48;;;3.75;;
77158;SDS011;66129;45.890;13.714;2023-03-30T13:36:35;10.05;;;4.72;;
77158;SDS011;66129;45.890;13.714;2023-03-30T13:39:12;27.02;;;14.63;;
77158;SDS011;66129;45.890;13.714;2023-03-30T13:44:33;8.05;;;4.30;;
77158;SDS011;66129;45.890;13.714;2023-03-30T13:52:13;9.10;;;5.07;;
77158;SDS011;66129;45.890;13.714;2023-03-30T13:54:42;14.23;;;6.10;;
77158;SDS011;66129;45.890;13.714;2023-03-30T13:57:19;9.80;;;5.53;;
77158;SDS011;66129;45.890;13.714;2023-03-30T13:59:52;9.23;;;5.18;;
77158;SDS011;66129;45.890;13.714;2023-03-30T14:02:32;7.60;;;5.32;;
77158;SDS011;66129;45.890;13.714;2023-03-30T14:07:48;7.68;;;4.28;;
77158;SDS011;66129;45.890;13.714;2023-03-30T14:10:18;14.15;;;8.35;;
77158;SDS011;66129;45.890;13.714;2023-03-30T14:12:46;11.05;;;7.28;;
77158;SDS011;66129;45.890;13.714;2023-03-30T14:15:36;11.38;;;6.10;;
77158;SDS011;66129;45.890;13.714;2023-03-30T14:18:02;17.75;;;10.93;;
77158;SDS011;66129;45.890;13.714;2023-03-30T14:20:39;12.00;;;8.38;;
77158;SDS011;66129;45.890;13.714;2023-03-30T14:23:12;14.18;;;10.07;;
77158;SDS011;66129;45.890;13.714;2023-03-30T14:25:44;11.95;;;8.13;;
77158;SDS011;66129;45.890;13.714;2023-03-30T14:28:15;9.75;;;6.15;;
77158;SDS011;66129;45.890;13.714;2023-03-30T14:30:51;11.10;;;5.68;;
77158;SDS011;66129;45.890;13.714;2023-03-30T14:33:29;13.18;;;9.13;;
77158;SDS011;66129;45.890;13.714;2023-03-30T14:35:56;22.05;;;13.85;;
77158;SDS011;66129;45.890;13.714;2023-03-30T14:41:20;12.70;;;5.80;;
77158;SDS011;66129;45.890;13.714;2023-03-30T14:43:52;12.88;;;6.60;;
77158;SDS011;66129;45.890;13.714;2023-03-30T14:46:20;10.55;;;6.28;;
77158;SDS011;66129;45.890;13.714;2023-03-30T14:48:52;20.88;;;12.05;;
77158;SDS011;66129;45.890;13.714;2023-03-30T14:51:34;17.70;;;9.50;;
77158;SDS011;66129;45.890;13.714;2023-03-30T14:54:01;12.63;;;7.18;;
77158;SDS011;66129;45.890;13.714;2023-03-30T14:56:28;10.25;;;5.60;;
77158;SDS011;66129;45.890;13.714;2023-03-30T14:58:54;11.63;;;6.18;;
77158;SDS011;66129;45.890;13.714;2023-03-30T15:01:23;10.40;;;5.18;;
77158;SDS011;66129;45.890;13.714;2023-03-30T15:03:55;8.15;;;5.88;;
77158;SDS011;66129;45.890;13.714;2023-03-30T15:06:26;11.95;;;6.20;;
77158;SDS011;66129;45.890;13.714;2023-03-30T15:08:58;10.65;;;6.28;;
77158;SDS011;66129;45.890;13.714;2023-03-30T15:11:25;15.00;;;8.00;;
77158;SDS011;66129;45.890;13.714;2023-03-30T15:13:53;12.98;;;7.45;;
77158;SDS011;66129;45.890;13.714;2023-03-30T15:16:26;10.52;;;7.03;;
77158;SDS011;66129;45.890;13.714;2023-03-30T15:21:45;15.07;;;7.28;;
77158;SDS011;66129;45.890;13.714;2023-03-30T15:24:12;13.98;;;9.30;;
77158;SDS011;66129;45.890;13.714;2023-03-30T15:26:43;13.70;;;9.48;;
77158;SDS011;66129;45.890;13.714;2023-03-30T15:29:11;13.63;;;9.40;;
77158;SDS011;66129;45.890;13.714;2023-03-30T15:31:42;18.95;;;10.10;;
77158;SDS011;66129;45.890;13.714;2023-03-30T15:34:15;19.65;;;11.13;;
77158;SDS011;66129;45.890;13.714;2023-03-30T15:36:42;20.10;;;12.88;;
77158;SDS011;66129;45.890;13.714;2023-03-30T15:39:18;12.68;;;7.15;;
77158;SDS011;66129;45.890;13.714;2023-03-30T15:44:20;12.30;;;8.05;;
77158;SDS011;66129;45.890;13.714;2023-03-30T15:46:50;22.15;;;13.00;;
77158;SDS011;66129;45.890;13.714;2023-03-30T15:49:19;15.27;;;9.73;;
77158;SDS011;66129;45.890;13.714;2023-03-30T15:51:52;22.27;;;11.65;;
77158;SDS011;66129;45.890;13.714;2023-03-30T15:54:32;18.30;;;9.52;;
77158;SDS011;66129;45.890;13.714;2023-03-30T15:59:56;12.82;;;7.38;;
77158;SDS011;66129;45.890;13.714;2023-03-30T16:02:34;15.27;;;9.18;;
77158;SDS011;66129;45.890;13.714;2023-03-30T16:05:06;12.40;;;7.47;;
77158;SDS011;66129;45.890;13.714;2023-03-30T16:07:40;14.85;;;8.75;;
77158;SDS011;66129;45.890;13.714;2023-03-30T16:10:11;14.70;;;8.10;;
77158;SDS011;66129;45.890;13.714;2023-03-30T16:12:43;14.57;;;8.02;;
77158;SDS011;66129;45.890;13.714;2023-03-30T16:15:14;15.45;;;9.45;;
77158;SDS011;66129;45.890;13.714;2023-03-30T16:17:41;15.07;;;7.70;;
77158;SDS011;66129;45.890;13.714;2023-03-30T16:20:16;10.95;;;6.70;;
77158;SDS011;66129;45.890;13.714;2023-03-30T16:22:55;13.18;;;7.13;;
77158;SDS011;66129;45.890;13.714;2023-03-30T16:25:23;13.60;;;7.28;;
77158;SDS011;66129;45.890;13.714;2023-03-30T16:27:50;11.07;;;7.88;;
77158;SDS011;66129;45.890;13.714;2023-03-30T16:30:17;11.82;;;7.65;;
77158;SDS011;66129;45.890;13.714;2023-03-30T16:32:45;10.40;;;6.75;;
77158;SDS011;66129;45.890;13.714;2023-03-30T16:35:11;14.13;;;7.97;;
77158;SDS011;66129;45.890;13.714;2023-03-30T16:37:37;12.90;;;7.20;;
77158;SDS011;66129;45.890;13.714;2023-03-30T16:42:46;9.43;;;6.90;;
77158;SDS011;66129;45.890;13.714;2023-03-30T16:45:12;13.60;;;8.35;;
77158;SDS011;66129;45.890;13.714;2023-03-30T16:47:37;13.60;;;7.68;;
77158;SDS011;66129;45.890;13.714;2023-03-30T16:50:37;17.00;;;8.82;;
77158;SDS011;66129;45.890;13.714;2023-03-30T16:53:05;20.98;;;14.70;;
77158;SDS011;66129;45.890;13.714;2023-03-30T16:55:34;17.15;;;9.70;;
77158;SDS011;66129;45.890;13.714;2023-03-30T16:58:00;10.55;;;7.15;;
77158;SDS011;66129;45.890;13.714;2023-03-30T17:00:30;12.98;;;8.32;;
77158;SDS011;66129;45.890;13.714;2023-03-30T17:03:00;19.85;;;12.55;;
77158;SDS011;66129;45.890;13.714;2023-03-30T17:05:25;25.27;;;12.73;;
77158;SDS011;66129;45.890;13.714;2023-03-30T17:07:54;26.05;;;14.85;;
77158;SDS011;66129;45.890;13.714;2023-03-30T17:10:29;18.50;;;12.35;;
77158;SDS011;66129;45.890;13.714;2023-03-30T17:13:00;14.00;;;7.85;;
77158;SDS011;66129;45.890;13.714;2023-03-30T17:15:26;17.63;;;12.23;;
77158;SDS011;66129;45.890;13.714;2023-03-30T17:17:53;16.23;;;11.15;;
77158;SDS011;66129;45.890;13.714;2023-03-30T17:20:23;16.67;;;9.32;;
77158;SDS011;66129;45.890;13.714;2023-03-30T17:22:52;13.90;;;8.88;;
77158;SDS011;66129;45.890;13.714;2023-03-30T17:25:18;16.42;;;8.80;;
77158;SDS011;66129;45.890;13.714;2023-03-30T17:27:47;15.27;;;9.20;;
77158;SDS011;66129;45.890;13.714;2023-03-30T17:30:15;26.48;;;12.77;;
77158;SDS011;66129;45.890;13.714;2023-03-30T17:32:43;13.35;;;9.80;;
77158;SDS011;66129;45.890;13.714;2023-03-30T17:35:09;11.57;;;7.95;;